sensor_id;sensor_type;location;lat;lon;timestamp;P1;durP1;ratioP1;P2;durP2;ratioP2
21894;SDS011;11112;51.270;7.224;2023-07-30T00:00:08;5.32;;;2.60;;
21894;SDS011;11112;51.270;7.224;2023-07-30T00:02:36;4.05;;;1.98;;
21894;SDS011;11112;51.270;7.224;2023-07-30T00:05:03;4.50;;;2.20;;
21894;SDS011;11112;51.270;7.224;2023-07-30T00:07:34;3.60;;;2.30;;
21894;SDS011;11112;51.270;7.224;2023-07-30T00:10:01;4.65;;;2.20;;
21894;SDS011;11112;51.270;7.224;2023-07-30T00:12:28;7.75;;;2.17;;
21894;SDS011;11112;51.270;7.224;2023-07-30T00:14:55;4.88;;;2.08;;
21894;SDS011;11112;51.270;7.224;2023-07-30T00:17:23;5.00;;;2.13;;
21894;SDS011;11112;51.270;7.224;2023-07-30T00:19:50;5.45;;;2.30;;
21894;SDS011;11112;51.270;7.224;2023-07-30T00:22:17;7.10;;;1.83;;
21894;SDS011;11112;51.270;7.224;2023-07-30T00:24:44;4.50;;;2.10;;
21894;SDS011;11112;51.270;7.224;2023-07-30T00:27:11;4.57;;;2.10;;
21894;SDS011;11112;51.270;7.224;2023-07-30T00:29:43;8.48;;;2.20;;
21894;SDS011;11112;51.270;7.224;2023-07-30T00:32:10;6.47;;;2.08;;
21894;SDS011;11112;51.270;7.224;2023-07-30T00:34:42;6.65;;;2.40;;
21894;SDS011;11112;51.270;7.224;2023-07-30T00:37:12;6.63;;;2.20;;
21894;SDS011;11112;51.270;7.224;2023-07-30T00:39:39;6.32;;;2.00;;
21894;SDS011;11112;51.270;7.224;2023-07-30T00:42:06;6.47;;;2.08;;
21894;SDS011;11112;51.270;7.224;2023-07-30T00:44:35;6.35;;;2.22;;
21894;SDS011;11112;51.270;7.224;2023-07-30T00:47:03;8.18;;;2.35;;
21894;SDS011;11112;51.270;7.224;2023-07-30T00:49:32;5.80;;;2.33;;
21894;SDS011;11112;51.270;7.224;2023-07-30T00:52:05;7.32;;;2.15;;
21894;SDS011;11112;51.270;7.224;2023-07-30T00:54:35;5.03;;;2.10;;
21894;SDS011;11112;51.270;7.224;2023-07-30T00:57:11;4.57;;;2.20;;
21894;SDS011;11112;51.270;7.224;2023-07-30T00:59:48;7.25;;;2.08;;
21894;SDS011;11112;51.270;7.224;2023-07-30T01:02:15;5.15;;;1.85;;
21894;SDS011;11112;51.270;7.224;2023-07-30T01:04:45;6.55;;;2.28;;
21894;SDS011;11112;51.270;7.224;2023-07-30T01:07:26;7.72;;;1.73;;
21894;SDS011;11112;51.270;7.224;2023-07-30T01:09:56;5.88;;;2.30;;
21894;SDS011;11112;51.270;7.224;2023-07-30T01:12:23;5.13;;;1.75;;
21894;SDS011;11112;51.270;7.224;2023-07-30T01:14:52;8.43;;;2.10;;
21894;SDS011;11112;51.270;7.224;2023-07-30T01:17:34;4.82;;;1.73;;
21894;SDS011;11112;51.270;7.224;2023-07-30T01:20:02;6.85;;;1.88;;
21894;SDS011;11112;51.270;7.224;2023-07-30T01:22:32;7.85;;;2.22;;
21894;SDS011;11112;51.270;7.224;2023-07-30T01:24:59;8.52;;;2.10;;
21894;SDS011;11112;51.270;7.224;2023-07-30T01:27:27;5.20;;;1.90;;
21894;SDS011;11112;51.270;7.224;2023-07-30T01:29:57;4.65;;;1.85;;
21894;SDS011;11112;51.270;7.224;2023-07-30T01:32:33;5.90;;;1.98;;
21894;SDS011;11112;51.270;7.224;2023-07-30T01:35:00;5.50;;;2.20;;
21894;SDS011;11112;51.270;7.224;2023-07-30T01:37:31;4.60;;;1.90;;
21894;SDS011;11112;51.270;7.224;2023-07-30T01:39:58;4.97;;;1.90;;
21894;SDS011;11112;51.270;7.224;2023-07-30T01:42:28;13.00;;;2.28;;
21894;SDS011;11112;51.270;7.224;2023-07-30T01:44:55;3.85;;;1.77;;
21894;SDS011;11112;51.270;7.224;2023-07-30T01:47:23;4.95;;;2.00;;
21894;SDS011;11112;51.270;7.224;2023-07-30T01:49:49;7.43;;;2.28;;
21894;SDS011;11112;51.270;7.224;2023-07-30T01:52:16;6.07;;;2.35;;
21894;SDS011;11112;51.270;7.224;2023-07-30T01:54:45;6.35;;;2.03;;
21894;SDS011;11112;51.270;7.224;2023-07-30T01:57:12;4.75;;;1.88;;
21894;SDS011;11112;51.270;7.224;2023-07-30T01:59:39;6.78;;;2.40;;
21894;SDS011;11112;51.270;7.224;2023-07-30T02:02:06;6.18;;;2.10;;
21894;SDS011;11112;51.270;7.224;2023-07-30T02:04:33;5.97;;;2.05;;
21894;SDS011;11112;51.270;7.224;2023-07-30T02:07:00;5.03;;;1.88;;
21894;SDS011;11112;51.270;7.224;2023-07-30T02:09:27;8.88;;;2.10;;
21894;SDS011;11112;51.270;7.224;2023-07-30T02:11:55;4.45;;;1.80;;
21894;SDS011;11112;51.270;7.224;2023-07-30T02:14:22;6.10;;;2.00;;
21894;SDS011;11112;51.270;7.224;2023-07-30T02:16:49;4.03;;;1.60;;
21894;SDS011;11112;51.270;7.224;2023-07-30T02:19:16;6.20;;;1.92;;
21894;SDS011;11112;51.270;7.224;2023-07-30T02:24:23;5.88;;;1.80;;
21894;SDS011;11112;51.270;7.224;2023-07-30T02:26:50;6.50;;;2.13;;
21894;SDS011;11112;51.270;7.224;2023-07-30T02:29:19;5.70;;;1.90;;
21894;SDS011;11112;51.270;7.224;2023-07-30T02:31:46;5.88;;;2.05;;
21894;SDS011;11112;51.270;7.224;2023-07-30T02:34:13;6.70;;;1.90;;
21894;SDS011;11112;51.270;7.224;2023-07-30T02:36:40;6.60;;;1.70;;
21894;SDS011;11112;51.270;7.224;2023-07-30T02:39:07;5.75;;;2.00;;
21894;SDS011;11112;51.270;7.224;2023-07-30T02:41:34;6.53;;;1.77;;
21894;SDS011;11112;51.270;7.224;2023-07-30T02:44:01;5.40;;;1.75;;
21894;SDS011;11112;51.270;7.224;2023-07-30T02:46:29;7.13;;;1.95;;
21894;SDS011;11112;51.270;7.224;2023-07-30T02:48:56;9.10;;;2.10;;
21894;SDS011;11112;51.270;7.224;2023-07-30T02:51:23;6.97;;;2.22;;
21894;SDS011;11112;51.270;7.224;2023-07-30T02:53:51;6.70;;;2.15;;
21894;SDS011;11112;51.270;7.224;2023-07-30T02:56:19;7.47;;;2.25;;
21894;SDS011;11112;51.270;7.224;2023-07-30T02:58:46;9.57;;;2.00;;
21894;SDS011;11112;51.270;7.224;2023-07-30T03:01:13;5.97;;;2.17;;
21894;SDS011;11112;51.270;7.224;2023-07-30T03:03:41;7.45;;;2.17;;
21894;SDS011;11112;51.270;7.224;2023-07-30T03:06:08;6.38;;;1.98;;
21894;SDS011;11112;51.270;7.224;2023-07-30T03:08:35;5.45;;;1.90;;
21894;SDS011;11112;51.270;7.224;2023-07-30T03:11:03;5.90;;;1.88;;
21894;SDS011;11112;51.270;7.224;2023-07-30T03:13:30;7.10;;;2.30;;
21894;SDS011;11112;51.270;7.224;2023-07-30T03:15:57;7.72;;;2.10;;
21894;SDS011;11112;51.270;7.224;2023-07-30T03:18:24;8.57;;;1.90;;
21894;SDS011;11112;51.270;7.224;2023-07-30T03:20:52;6.15;;;1.90;;
21894;SDS011;11112;51.270;7.224;2023-07-30T03:23:28;8.68;;;2.10;;
21894;SDS011;11112;51.270;7.224;2023-07-30T03:26:00;6.15;;;2.08;;
21894;SDS011;11112;51.270;7.224;2023-07-30T03:28:27;7.00;;;2.10;;
21894;SDS011;11112;51.270;7.224;2023-07-30T03:30:54;9.65;;;2.33;;
21894;SDS011;11112;51.270;7.224;2023-07-30T03:33:21;9.70;;;2.15;;
21894;SDS011;11112;51.270;7.224;2023-07-30T03:35:48;5.72;;;2.00;;
21894;SDS011;11112;51.270;7.224;2023-07-30T03:38:16;8.80;;;2.13;;
21894;SDS011;11112;51.270;7.224;2023-07-30T03:40:43;9.25;;;2.30;;
21894;SDS011;11112;51.270;7.224;2023-07-30T03:43:10;7.07;;;2.30;;
21894;SDS011;11112;51.270;7.224;2023-07-30T03:45:37;7.63;;;2.25;;
21894;SDS011;11112;51.270;7.224;2023-07-30T03:48:04;9.38;;;2.40;;
21894;SDS011;11112;51.270;7.224;2023-07-30T03:50:31;8.45;;;2.40;;
21894;SDS011;11112;51.270;7.224;2023-07-30T03:52:58;6.97;;;2.13;;
21894;SDS011;11112;51.270;7.224;2023-07-30T03:55:26;7.47;;;1.98;;
21894;SDS011;11112;51.270;7.224;2023-07-30T03:57:54;8.13;;;2.45;;
21894;SDS011;11112;51.270;7.224;2023-07-30T04:00:21;8.68;;;2.30;;
21894;SDS011;11112;51.270;7.224;2023-07-30T04:02:48;7.78;;;2.38;;
21894;SDS011;11112;51.270;7.224;2023-07-30T04:05:15;7.32;;;2.45;;
21894;SDS011;11112;51.270;7.224;2023-07-30T04:07:42;7.20;;;1.90;;
21894;SDS011;11112;51.270;7.224;2023-07-30T04:10:09;8.68;;;2.35;;
21894;SDS011;11112;51.270;7.224;2023-07-30T04:12:37;6.90;;;2.10;;
21894;SDS011;11112;51.270;7.224;2023-07-30T04:15:05;5.28;;;2.20;;
21894;SDS011;11112;51.270;7.224;2023-07-30T04:17:33;6.97;;;2.10;;
21894;SDS011;11112;51.270;7.224;2023-07-30T04:20:02;8.93;;;2.30;;
21894;SDS011;11112;51.270;7.224;2023-07-30T04:22:30;8.93;;;2.40;;
21894;SDS011;11112;51.270;7.224;2023-07-30T04:24:57;7.25;;;2.40;;
21894;SDS011;11112;51.270;7.224;2023-07-30T04:27:24;7.07;;;1.98;;
21894;SDS011;11112;51.270;7.224;2023-07-30T04:29:53;8.70;;;2.08;;
21894;SDS011;11112;51.270;7.224;2023-07-30T04:32:20;10.18;;;2.05;;
21894;SDS011;11112;51.270;7.224;2023-07-30T04:34:47;7.93;;;2.22;;
21894;SDS011;11112;51.270;7.224;2023-07-30T04:37:14;9.10;;;2.40;;
21894;SDS011;11112;51.270;7.224;2023-07-30T04:39:41;5.63;;;2.08;;
21894;SDS011;11112;51.270;7.224;2023-07-30T04:42:08;8.30;;;1.90;;
21894;SDS011;11112;51.270;7.224;2023-07-30T04:44:35;7.43;;;2.10;;
21894;SDS011;11112;51.270;7.224;2023-07-30T04:47:03;7.72;;;2.25;;
21894;SDS011;11112;51.270;7.224;2023-07-30T04:49:32;9.90;;;2.38;;
21894;SDS011;11112;51.270;7.224;2023-07-30T04:51:59;8.05;;;1.98;;
21894;SDS011;11112;51.270;7.224;2023-07-30T04:54:26;8.07;;;2.05;;
21894;SDS011;11112;51.270;7.224;2023-07-30T04:56:53;7.63;;;2.03;;
21894;SDS011;11112;51.270;7.224;2023-07-30T04:59:20;8.25;;;2.25;;
21894;SDS011;11112;51.270;7.224;2023-07-30T05:01:47;11.27;;;2.22;;
21894;SDS011;11112;51.270;7.224;2023-07-30T05:04:15;8.23;;;2.20;;
21894;SDS011;11112;51.270;7.224;2023-07-30T05:06:43;8.27;;;2.28;;
21894;SDS011;11112;51.270;7.224;2023-07-30T05:09:10;9.52;;;2.22;;
21894;SDS011;11112;51.270;7.224;2023-07-30T05:11:37;8.18;;;2.00;;
21894;SDS011;11112;51.270;7.224;2023-07-30T05:14:04;8.35;;;2.50;;
21894;SDS011;11112;51.270;7.224;2023-07-30T05:16:31;9.13;;;2.20;;
21894;SDS011;11112;51.270;7.224;2023-07-30T05:18:58;7.68;;;2.10;;
21894;SDS011;11112;51.270;7.224;2023-07-30T05:21:27;8.35;;;2.15;;
21894;SDS011;11112;51.270;7.224;2023-07-30T05:23:54;8.25;;;2.03;;
21894;SDS011;11112;51.270;7.224;2023-07-30T05:26:21;10.95;;;2.05;;
21894;SDS011;11112;51.270;7.224;2023-07-30T05:28:48;6.40;;;1.88;;
21894;SDS011;11112;51.270;7.224;2023-07-30T05:31:15;8.52;;;2.40;;
21894;SDS011;11112;51.270;7.224;2023-07-30T05:33:42;10.30;;;2.08;;
21894;SDS011;11112;51.270;7.224;2023-07-30T05:36:09;9.90;;;2.80;;
21894;SDS011;11112;51.270;7.224;2023-07-30T05:38:37;6.22;;;1.70;;
21894;SDS011;11112;51.270;7.224;2023-07-30T05:41:04;7.25;;;1.92;;
21894;SDS011;11112;51.270;7.224;2023-07-30T05:43:31;7.30;;;2.00;;
21894;SDS011;11112;51.270;7.224;2023-07-30T05:45:58;9.32;;;2.20;;
21894;SDS011;11112;51.270;7.224;2023-07-30T05:48:25;9.13;;;2.58;;
21894;SDS011;11112;51.270;7.224;2023-07-30T05:50:52;5.85;;;1.52;;
21894;SDS011;11112;51.270;7.224;2023-07-30T05:53:19;9.00;;;2.00;;
21894;SDS011;11112;51.270;7.224;2023-07-30T05:55:48;8.93;;;1.90;;
21894;SDS011;11112;51.270;7.224;2023-07-30T05:58:15;7.78;;;1.92;;
21894;SDS011;11112;51.270;7.224;2023-07-30T06:00:42;6.10;;;1.40;;
21894;SDS011;11112;51.270;7.224;2023-07-30T06:03:09;6.47;;;1.70;;
21894;SDS011;11112;51.270;7.224;2023-07-30T06:05:38;6.00;;;1.75;;
21894;SDS011;11112;51.270;7.224;2023-07-30T06:08:06;9.20;;;1.95;;
21894;SDS011;11112;51.270;7.224;2023-07-30T06:10:34;8.40;;;2.13;;
21894;SDS011;11112;51.270;7.224;2023-07-30T06:13:03;7.75;;;1.38;;
21894;SDS011;11112;51.270;7.224;2023-07-30T06:15:31;7.45;;;1.80;;
21894;SDS011;11112;51.270;7.224;2023-07-30T06:17:58;6.82;;;1.48;;
21894;SDS011;11112;51.270;7.224;2023-07-30T06:20:27;7.35;;;1.65;;
21894;SDS011;11112;51.270;7.224;2023-07-30T06:22:54;8.40;;;2.00;;
21894;SDS011;11112;51.270;7.224;2023-07-30T06:25:21;7.18;;;1.98;;
21894;SDS011;11112;51.270;7.224;2023-07-30T06:27:48;7.03;;;1.80;;
21894;SDS011;11112;51.270;7.224;2023-07-30T06:30:17;6.50;;;1.55;;
21894;SDS011;11112;51.270;7.224;2023-07-30T06:32:44;9.27;;;1.70;;
21894;SDS011;11112;51.270;7.224;2023-07-30T06:35:11;7.07;;;1.83;;
21894;SDS011;11112;51.270;7.224;2023-07-30T06:37:38;8.75;;;2.20;;
21894;SDS011;11112;51.270;7.224;2023-07-30T06:40:06;6.35;;;1.55;;
21894;SDS011;11112;51.270;7.224;2023-07-30T06:42:34;9.88;;;1.90;;
21894;SDS011;11112;51.270;7.224;2023-07-30T06:45:01;6.88;;;1.70;;
21894;SDS011;11112;51.270;7.224;2023-07-30T06:47:30;9.20;;;1.95;;
21894;SDS011;11112;51.270;7.224;2023-07-30T06:49:57;9.30;;;2.20;;
21894;SDS011;11112;51.270;7.224;2023-07-30T06:52:24;8.85;;;1.90;;
21894;SDS011;11112;51.270;7.224;2023-07-30T06:54:51;6.00;;;1.75;;
21894;SDS011;11112;51.270;7.224;2023-07-30T06:57:18;7.68;;;2.05;;
21894;SDS011;11112;51.270;7.224;2023-07-30T06:59:45;7.80;;;1.75;;
21894;SDS011;11112;51.270;7.224;2023-07-30T07:02:12;7.15;;;1.70;;
21894;SDS011;11112;51.270;7.224;2023-07-30T07:04:40;9.25;;;2.00;;
21894;SDS011;11112;51.270;7.224;2023-07-30T07:07:07;7.28;;;1.83;;
21894;SDS011;11112;51.270;7.224;2023-07-30T07:09:35;8.35;;;1.92;;
21894;SDS011;11112;51.270;7.224;2023-07-30T07:12:02;10.05;;;4.05;;
21894;SDS011;11112;51.270;7.224;2023-07-30T07:14:29;8.30;;;2.47;;
21894;SDS011;11112;51.270;7.224;2023-07-30T07:16:56;9.05;;;2.20;;
21894;SDS011;11112;51.270;7.224;2023-07-30T07:19:23;12.60;;;2.17;;
21894;SDS011;11112;51.270;7.224;2023-07-30T07:21:52;10.25;;;2.53;;
21894;SDS011;11112;51.270;7.224;2023-07-30T07:24:19;11.27;;;2.40;;
21894;SDS011;11112;51.270;7.224;2023-07-30T07:26:46;10.45;;;2.17;;
21894;SDS011;11112;51.270;7.224;2023-07-30T07:29:14;12.48;;;1.90;;
21894;SDS011;11112;51.270;7.224;2023-07-30T07:31:41;7.15;;;2.22;;
21894;SDS011;11112;51.270;7.224;2023-07-30T07:34:08;8.27;;;1.90;;
21894;SDS011;11112;51.270;7.224;2023-07-30T07:36:36;7.57;;;2.13;;
21894;SDS011;11112;51.270;7.224;2023-07-30T07:39:04;7.60;;;1.92;;
21894;SDS011;11112;51.270;7.224;2023-07-30T07:41:32;8.30;;;1.80;;
21894;SDS011;11112;51.270;7.224;2023-07-30T07:43:59;9.05;;;1.80;;
21894;SDS011;11112;51.270;7.224;2023-07-30T07:46:26;6.35;;;1.80;;
21894;SDS011;11112;51.270;7.224;2023-07-30T07:48:53;8.63;;;1.75;;
21894;SDS011;11112;51.270;7.224;2023-07-30T07:51:20;10.02;;;2.10;;
21894;SDS011;11112;51.270;7.224;2023-07-30T07:53:47;8.30;;;1.75;;
21894;SDS011;11112;51.270;7.224;2023-07-30T07:56:15;5.57;;;1.70;;
21894;SDS011;11112;51.270;7.224;2023-07-30T07:58:42;8.45;;;2.28;;
21894;SDS011;11112;51.270;7.224;2023-07-30T08:01:10;9.75;;;2.10;;
21894;SDS011;11112;51.270;7.224;2023-07-30T08:03:37;10.63;;;2.10;;
21894;SDS011;11112;51.270;7.224;2023-07-30T08:06:04;9.55;;;1.98;;
21894;SDS011;11112;51.270;7.224;2023-07-30T08:08:32;9.13;;;1.83;;
21894;SDS011;11112;51.270;7.224;2023-07-30T08:11:02;7.45;;;1.88;;
21894;SDS011;11112;51.270;7.224;2023-07-30T08:13:33;6.60;;;1.52;;
21894;SDS011;11112;51.270;7.224;2023-07-30T08:16:01;8.93;;;2.00;;
21894;SDS011;11112;51.270;7.224;2023-07-30T08:18:28;8.02;;;2.03;;
21894;SDS011;11112;51.270;7.224;2023-07-30T08:20:55;7.88;;;2.53;;
21894;SDS011;11112;51.270;7.224;2023-07-30T08:23:22;8.77;;;2.90;;
21894;SDS011;11112;51.270;7.224;2023-07-30T08:25:49;8.13;;;2.10;;
21894;SDS011;11112;51.270;7.224;2023-07-30T08:28:16;10.10;;;2.05;;
21894;SDS011;11112;51.270;7.224;2023-07-30T08:30:45;10.32;;;2.33;;
21894;SDS011;11112;51.270;7.224;2023-07-30T08:33:13;13.77;;;2.50;;
21894;SDS011;11112;51.270;7.224;2023-07-30T08:35:40;12.00;;;2.58;;
21894;SDS011;11112;51.270;7.224;2023-07-30T08:38:07;6.90;;;2.10;;
21894;SDS011;11112;51.270;7.224;2023-07-30T08:40:34;7.90;;;1.95;;
21894;SDS011;11112;51.270;7.224;2023-07-30T08:43:02;10.77;;;2.42;;
21894;SDS011;11112;51.270;7.224;2023-07-30T08:45:30;10.05;;;2.15;;
21894;SDS011;11112;51.270;7.224;2023-07-30T08:47:58;9.15;;;2.15;;
21894;SDS011;11112;51.270;7.224;2023-07-30T08:50:25;11.05;;;1.95;;
21894;SDS011;11112;51.270;7.224;2023-07-30T08:52:54;12.07;;;2.53;;
21894;SDS011;11112;51.270;7.224;2023-07-30T08:55:22;9.32;;;2.00;;
21894;SDS011;11112;51.270;7.224;2023-07-30T08:57:50;8.65;;;2.45;;
21894;SDS011;11112;51.270;7.224;2023-07-30T09:00:18;9.57;;;2.20;;
21894;SDS011;11112;51.270;7.224;2023-07-30T09:02:52;10.25;;;2.13;;
21894;SDS011;11112;51.270;7.224;2023-07-30T09:05:22;8.48;;;2.33;;
21894;SDS011;11112;51.270;7.224;2023-07-30T09:07:50;10.52;;;3.00;;
21894;SDS011;11112;51.270;7.224;2023-07-30T09:10:17;10.07;;;2.15;;
21894;SDS011;11112;51.270;7.224;2023-07-30T09:12:44;11.13;;;2.50;;
21894;SDS011;11112;51.270;7.224;2023-07-30T09:15:11;11.88;;;2.50;;
21894;SDS011;11112;51.270;7.224;2023-07-30T09:17:38;10.75;;;2.65;;
21894;SDS011;11112;51.270;7.224;2023-07-30T09:20:06;11.40;;;2.40;;
21894;SDS011;11112;51.270;7.224;2023-07-30T09:22:34;10.40;;;2.33;;
21894;SDS011;11112;51.270;7.224;2023-07-30T09:25:05;9.63;;;2.03;;
21894;SDS011;11112;51.270;7.224;2023-07-30T09:27:33;10.45;;;2.40;;
21894;SDS011;11112;51.270;7.224;2023-07-30T09:30:01;10.98;;;2.67;;
21894;SDS011;11112;51.270;7.224;2023-07-30T09:32:31;13.55;;;2.83;;
21894;SDS011;11112;51.270;7.224;2023-07-30T09:35:04;11.18;;;3.10;;
21894;SDS011;11112;51.270;7.224;2023-07-30T09:37:32;14.70;;;3.40;;
21894;SDS011;11112;51.270;7.224;2023-07-30T09:40:05;12.07;;;2.72;;
21894;SDS011;11112;51.270;7.224;2023-07-30T09:42:34;12.10;;;2.72;;
21894;SDS011;11112;51.270;7.224;2023-07-30T09:45:04;12.95;;;2.75;;
21894;SDS011;11112;51.270;7.224;2023-07-30T09:47:33;12.80;;;2.58;;
21894;SDS011;11112;51.270;7.224;2023-07-30T09:50:03;11.48;;;2.38;;
21894;SDS011;11112;51.270;7.224;2023-07-30T09:52:31;11.65;;;2.30;;
21894;SDS011;11112;51.270;7.224;2023-07-30T09:54:59;11.02;;;1.92;;
21894;SDS011;11112;51.270;7.224;2023-07-30T09:57:28;10.75;;;2.38;;
21894;SDS011;11112;51.270;7.224;2023-07-30T09:59:55;13.40;;;2.63;;
21894;SDS011;11112;51.270;7.224;2023-07-30T10:02:23;10.00;;;1.98;;
21894;SDS011;11112;51.270;7.224;2023-07-30T10:04:53;10.77;;;2.05;;
21894;SDS011;11112;51.270;7.224;2023-07-30T10:07:26;9.30;;;2.00;;
21894;SDS011;11112;51.270;7.224;2023-07-30T10:09:57;6.22;;;1.73;;
21894;SDS011;11112;51.270;7.224;2023-07-30T10:12:28;11.52;;;2.03;;
21894;SDS011;11112;51.270;7.224;2023-07-30T10:14:58;8.45;;;1.83;;
21894;SDS011;11112;51.270;7.224;2023-07-30T10:17:27;7.68;;;2.15;;
21894;SDS011;11112;51.270;7.224;2023-07-30T10:19:54;7.60;;;1.80;;
21894;SDS011;11112;51.270;7.224;2023-07-30T10:22:22;9.27;;;2.00;;
21894;SDS011;11112;51.270;7.224;2023-07-30T10:24:56;7.15;;;1.80;;
21894;SDS011;11112;51.270;7.224;2023-07-30T10:27:26;7.78;;;2.00;;
21894;SDS011;11112;51.270;7.224;2023-07-30T10:30:08;7.45;;;1.70;;
21894;SDS011;11112;51.270;7.224;2023-07-30T10:32:37;8.02;;;1.80;;
21894;SDS011;11112;51.270;7.224;2023-07-30T10:35:06;11.07;;;2.05;;
21894;SDS011;11112;51.270;7.224;2023-07-30T10:37:34;7.90;;;1.83;;
21894;SDS011;11112;51.270;7.224;2023-07-30T10:40:09;7.70;;;2.00;;
21894;SDS011;11112;51.270;7.224;2023-07-30T10:42:43;11.25;;;1.90;;
21894;SDS011;11112;51.270;7.224;2023-07-30T10:45:10;7.32;;;1.98;;
21894;SDS011;11112;51.270;7.224;2023-07-30T10:47:37;8.43;;;1.67;;
21894;SDS011;11112;51.270;7.224;2023-07-30T10:50:08;9.43;;;2.00;;
21894;SDS011;11112;51.270;7.224;2023-07-30T10:52:38;10.02;;;2.10;;
21894;SDS011;11112;51.270;7.224;2023-07-30T10:55:05;9.73;;;2.05;;
21894;SDS011;11112;51.270;7.224;2023-07-30T10:57:35;7.00;;;1.75;;
21894;SDS011;11112;51.270;7.224;2023-07-30T11:00:04;5.50;;;1.67;;
21894;SDS011;11112;51.270;7.224;2023-07-30T11:02:33;6.30;;;1.70;;
21894;SDS011;11112;51.270;7.224;2023-07-30T11:05:10;8.05;;;1.70;;
21894;SDS011;11112;51.270;7.224;2023-07-30T11:07:38;7.15;;;1.52;;
21894;SDS011;11112;51.270;7.224;2023-07-30T11:10:05;5.60;;;1.45;;
21894;SDS011;11112;51.270;7.224;2023-07-30T11:12:34;7.40;;;1.75;;
21894;SDS011;11112;51.270;7.224;2023-07-30T11:15:02;5.53;;;1.50;;
21894;SDS011;11112;51.270;7.224;2023-07-30T11:17:30;8.18;;;1.75;;
21894;SDS011;11112;51.270;7.224;2023-07-30T11:19:57;5.60;;;1.63;;
21894;SDS011;11112;51.270;7.224;2023-07-30T11:22:30;6.30;;;1.50;;
21894;SDS011;11112;51.270;7.224;2023-07-30T11:24:59;7.13;;;1.60;;
21894;SDS011;11112;51.270;7.224;2023-07-30T11:27:31;8.55;;;1.60;;
21894;SDS011;11112;51.270;7.224;2023-07-30T11:30:12;7.38;;;1.50;;
21894;SDS011;11112;51.270;7.224;2023-07-30T11:32:40;13.60;;;1.70;;
21894;SDS011;11112;51.270;7.224;2023-07-30T11:35:09;10.30;;;1.95;;
21894;SDS011;11112;51.270;7.224;2023-07-30T11:37:38;6.07;;;1.60;;
21894;SDS011;11112;51.270;7.224;2023-07-30T11:40:07;6.35;;;1.55;;
21894;SDS011;11112;51.270;7.224;2023-07-30T11:42:35;6.13;;;1.50;;
21894;SDS011;11112;51.270;7.224;2023-07-30T11:45:17;8.73;;;1.60;;
21894;SDS011;11112;51.270;7.224;2023-07-30T11:47:46;9.10;;;1.45;;
21894;SDS011;11112;51.270;7.224;2023-07-30T11:50:13;8.98;;;1.80;;
21894;SDS011;11112;51.270;7.224;2023-07-30T11:52:53;6.55;;;1.65;;
21894;SDS011;11112;51.270;7.224;2023-07-30T11:55:21;7.13;;;1.40;;
21894;SDS011;11112;51.270;7.224;2023-07-30T11:57:49;7.10;;;1.73;;
21894;SDS011;11112;51.270;7.224;2023-07-30T12:00:21;5.93;;;1.20;;
21894;SDS011;11112;51.270;7.224;2023-07-30T12:02:48;7.80;;;1.73;;
21894;SDS011;11112;51.270;7.224;2023-07-30T12:05:16;7.03;;;1.35;;
21894;SDS011;11112;51.270;7.224;2023-07-30T12:07:44;7.72;;;1.23;;
21894;SDS011;11112;51.270;7.224;2023-07-30T12:10:14;9.50;;;1.40;;
21894;SDS011;11112;51.270;7.224;2023-07-30T12:12:45;6.05;;;1.35;;
21894;SDS011;11112;51.270;7.224;2023-07-30T12:15:12;8.38;;;1.30;;
21894;SDS011;11112;51.270;7.224;2023-07-30T12:17:41;5.78;;;1.17;;
21894;SDS011;11112;51.270;7.224;2023-07-30T12:20:08;4.88;;;1.30;;
21894;SDS011;11112;51.270;7.224;2023-07-30T12:22:37;7.07;;;1.40;;
21894;SDS011;11112;51.270;7.224;2023-07-30T12:25:04;7.38;;;1.55;;
21894;SDS011;11112;51.270;7.224;2023-07-30T12:27:34;5.30;;;1.23;;
21894;SDS011;11112;51.270;7.224;2023-07-30T12:30:01;6.85;;;1.50;;
21894;SDS011;11112;51.270;7.224;2023-07-30T12:32:28;6.80;;;1.30;;
21894;SDS011;11112;51.270;7.224;2023-07-30T12:34:56;8.43;;;1.45;;
21894;SDS011;11112;51.270;7.224;2023-07-30T12:37:23;6.47;;;1.38;;
21894;SDS011;11112;51.270;7.224;2023-07-30T12:39:50;6.85;;;1.33;;
21894;SDS011;11112;51.270;7.224;2023-07-30T12:42:18;6.00;;;1.40;;
21894;SDS011;11112;51.270;7.224;2023-07-30T12:44:45;6.03;;;1.30;;
21894;SDS011;11112;51.270;7.224;2023-07-30T12:47:12;6.40;;;1.25;;
21894;SDS011;11112;51.270;7.224;2023-07-30T12:49:39;6.75;;;1.15;;
21894;SDS011;11112;51.270;7.224;2023-07-30T12:52:07;5.00;;;1.13;;
21894;SDS011;11112;51.270;7.224;2023-07-30T12:54:34;4.82;;;0.98;;
21894;SDS011;11112;51.270;7.224;2023-07-30T12:57:01;4.40;;;1.10;;
21894;SDS011;11112;51.270;7.224;2023-07-30T12:59:28;4.57;;;0.90;;
21894;SDS011;11112;51.270;7.224;2023-07-30T13:01:56;6.55;;;1.17;;
21894;SDS011;11112;51.270;7.224;2023-07-30T13:04:24;4.53;;;0.95;;
21894;SDS011;11112;51.270;7.224;2023-07-30T13:06:52;3.65;;;0.98;;
21894;SDS011;11112;51.270;7.224;2023-07-30T13:09:21;3.75;;;0.90;;
21894;SDS011;11112;51.270;7.224;2023-07-30T13:11:48;4.40;;;1.05;;
21894;SDS011;11112;51.270;7.224;2023-07-30T13:14:15;6.78;;;1.23;;
21894;SDS011;11112;51.270;7.224;2023-07-30T13:16:42;7.38;;;1.00;;
21894;SDS011;11112;51.270;7.224;2023-07-30T13:19:09;5.30;;;1.10;;
21894;SDS011;11112;51.270;7.224;2023-07-30T13:21:36;4.82;;;1.20;;
21894;SDS011;11112;51.270;7.224;2023-07-30T13:24:04;6.25;;;1.17;;
21894;SDS011;11112;51.270;7.224;2023-07-30T13:26:32;5.28;;;0.80;;
21894;SDS011;11112;51.270;7.224;2023-07-30T13:29:01;5.55;;;0.95;;
21894;SDS011;11112;51.270;7.224;2023-07-30T13:31:28;4.70;;;1.05;;
21894;SDS011;11112;51.270;7.224;2023-07-30T13:33:55;3.83;;;0.90;;
21894;SDS011;11112;51.270;7.224;2023-07-30T13:36:22;5.30;;;1.38;;
21894;SDS011;11112;51.270;7.224;2023-07-30T13:38:49;6.65;;;1.20;;
21894;SDS011;11112;51.270;7.224;2023-07-30T13:41:16;6.68;;;1.00;;
21894;SDS011;11112;51.270;7.224;2023-07-30T13:43:45;6.15;;;1.40;;
21894;SDS011;11112;51.270;7.224;2023-07-30T13:46:12;5.07;;;1.05;;
21894;SDS011;11112;51.270;7.224;2023-07-30T13:48:39;4.53;;;1.20;;
21894;SDS011;11112;51.270;7.224;2023-07-30T13:51:06;4.35;;;1.27;;
21894;SDS011;11112;51.270;7.224;2023-07-30T13:53:33;5.57;;;1.20;;
21894;SDS011;11112;51.270;7.224;2023-07-30T13:56:03;5.72;;;1.13;;
21894;SDS011;11112;51.270;7.224;2023-07-30T13:58:30;6.70;;;1.20;;
21894;SDS011;11112;51.270;7.224;2023-07-30T14:00:58;6.18;;;1.20;;
21894;SDS011;11112;51.270;7.224;2023-07-30T14:03:25;5.72;;;1.23;;
21894;SDS011;11112;51.270;7.224;2023-07-30T14:05:53;10.27;;;1.30;;
21894;SDS011;11112;51.270;7.224;2023-07-30T14:08:20;7.57;;;1.42;;
21894;SDS011;11112;51.270;7.224;2023-07-30T14:10:47;8.18;;;1.30;;
21894;SDS011;11112;51.270;7.224;2023-07-30T14:13:14;6.43;;;1.25;;
21894;SDS011;11112;51.270;7.224;2023-07-30T14:15:41;7.43;;;1.10;;
21894;SDS011;11112;51.270;7.224;2023-07-30T14:18:10;5.47;;;1.35;;
21894;SDS011;11112;51.270;7.224;2023-07-30T14:20:37;8.52;;;1.42;;
21894;SDS011;11112;51.270;7.224;2023-07-30T14:23:04;6.47;;;1.90;;
21894;SDS011;11112;51.270;7.224;2023-07-30T14:25:31;14.20;;;4.45;;
21894;SDS011;11112;51.270;7.224;2023-07-30T14:27:58;7.70;;;2.40;;
21894;SDS011;11112;51.270;7.224;2023-07-30T14:30:25;10.40;;;2.60;;
21894;SDS011;11112;51.270;7.224;2023-07-30T14:32:52;7.85;;;1.40;;
21894;SDS011;11112;51.270;7.224;2023-07-30T14:35:21;7.80;;;1.45;;
21894;SDS011;11112;51.270;7.224;2023-07-30T14:37:48;6.38;;;1.50;;
21894;SDS011;11112;51.270;7.224;2023-07-30T14:40:15;8.02;;;1.45;;
21894;SDS011;11112;51.270;7.224;2023-07-30T14:42:42;5.28;;;1.15;;
21894;SDS011;11112;51.270;7.224;2023-07-30T14:45:10;9.55;;;2.10;;
21894;SDS011;11112;51.270;7.224;2023-07-30T14:47:37;6.10;;;1.30;;
21894;SDS011;11112;51.270;7.224;2023-07-30T14:50:04;6.00;;;1.40;;
21894;SDS011;11112;51.270;7.224;2023-07-30T14:52:34;5.57;;;1.05;;